Time;durP1;ratioP1;P1;durP2;ratioP2;P2;SDS_P1;SDS_P2;PMS_P1;PMS_P2;Temp;Humidity;BMP_temperature;BMP_pressure;BME280_temperature;BME280_humidity;BME280_pressure;Samples;Min_cycle;Max_cycle;Signal;HPM_P1;HPM_P2
2022/05/01 00:00:38;;;;;;;121.53;110.63;;;11.10;72.60;;;;;;4994789;28;20055;-74
2022/05/01 00:03:06;;;;;;;119.13;108.45;;;11.10;72.70;;;;;;4993662;28;20047;-74
2022/05/01 00:05:34;;;;;;;118.25;107.63;;;11.10;72.80;;;;;;4995138;28;20054;-74
2022/05/01 00:08:01;;;;;;;118.10;107.38;;;11.10;72.90;;;;;;4993790;28;20453;-74
2022/05/01 00:10:29;;;;;;;118.88;108.00;;;11.10;72.90;;;;;;4993482;28;20051;-74
2022/05/01 00:12:56;;;;;;;118.07;107.35;;;11.00;73.00;;;;;;4994116;28;20047;-74
2022/05/01 00:15:23;;;;;;;118.07;107.50;;;11.10;73.00;;;;;;4993530;28;20049;-74
2022/05/01 00:17:50;;;;;;;120.18;109.05;;;11.00;72.90;;;;;;4993665;28;20145;-74
2022/05/01 00:20:17;;;;;;;118.65;108.07;;;11.00;73.00;;;;;;4993184;28;20050;-73
2022/05/01 00:22:44;;;;;;;118.85;107.85;;;11.00;73.00;;;;;;4995121;28;20061;-74
2022/05/01 00:25:13;;;;;;;118.28;107.72;;;11.00;73.10;;;;;;4993654;28;20039;-74
2022/05/01 00:27:41;;;;;;;120.63;109.78;;;11.00;73.00;;;;;;4994045;28;20845;-74
2022/05/01 00:30:09;;;;;;;118.90;108.07;;;11.00;73.20;;;;;;4993797;28;20047;-74
2022/05/01 00:38:01;;;;;;;119.18;108.15;;;11.00;73.40;;;;;;4976498;28;20095;-74
2022/05/01 00:40:28;;;;;;;119.82;108.80;;;10.90;73.30;;;;;;4993234;28;20057;-74
2022/05/01 00:43:01;;;;;;;117.43;106.95;;;11.00;73.50;;;;;;4993418;28;20051;-74
2022/05/01 00:45:28;;;;;;;118.53;107.93;;;10.90;73.50;;;;;;4993163;28;20054;-74
2022/05/01 00:47:55;;;;;;;120.63;109.57;;;10.90;73.50;;;;;;4976433;28;20969;-74
2022/05/01 00:50:22;;;;;;;119.05;108.13;;;10.90;73.60;;;;;;4993031;28;20130;-73
2022/05/01 00:52:49;;;;;;;118.55;107.93;;;10.90;73.70;;;;;;4992719;28;20106;-74
2022/05/01 00:55:16;;;;;;;121.07;110.15;;;10.90;73.80;;;;;;4992864;28;20121;-74
2022/05/01 00:57:46;;;;;;;119.32;108.35;;;10.90;74.00;;;;;;4992637;28;20053;-74
2022/05/01 01:00:17;;;;;;;120.03;109.07;;;10.90;74.20;;;;;;4992562;28;20094;-74
2022/05/01 01:02:46;;;;;;;119.60;108.70;;;10.80;74.30;;;;;;4992294;28;20106;-74
2022/05/01 01:05:13;;;;;;;119.25;108.57;;;10.90;74.40;;;;;;4992318;28;20047;-74
2022/05/01 01:07:40;;;;;;;120.80;110.00;;;10.80;74.30;;;;;;4991739;28;20150;-74
2022/05/01 01:10:07;;;;;;;122.50;111.53;;;10.80;74.30;;;;;;4994505;28;20054;-74
2022/05/01 01:15:21;;;;;;;123.90;112.70;;;10.80;74.60;;;;;;4974690;28;20043;-74
2022/05/01 01:17:52;;;;;;;121.28;110.38;;;10.80;74.70;;;;;;4992389;28;20054;-73
2022/05/01 01:20:22;;;;;;;120.10;109.05;;;10.70;74.80;;;;;;4992866;28;20077;-74
2022/05/01 01:22:53;;;;;;;119.20;108.30;;;10.70;75.00;;;;;;4993128;28;20058;-74
2022/05/01 01:25:22;;;;;;;121.78;110.78;;;10.70;75.20;;;;;;4976200;28;20050;-73
2022/05/01 01:27:50;;;;;;;121.65;110.75;;;10.70;75.30;;;;;;4992479;28;20517;-74
2022/05/01 01:33:02;;;;;;;120.68;109.32;;;10.70;75.30;;;;;;4975788;28;20092;-74
2022/05/01 01:35:30;;;;;;;121.65;110.60;;;10.70;75.10;;;;;;4976052;28;20105;-74
2022/05/01 01:37:58;;;;;;;121.88;110.47;;;10.60;75.10;;;;;;4993735;28;20086;-74
2022/05/01 01:40:29;;;;;;;120.70;109.60;;;10.70;75.30;;;;;;4992236;28;20093;-74
2022/05/01 01:42:58;;;;;;;120.18;109.18;;;10.60;75.40;;;;;;4992457;28;20042;-74
2022/05/01 01:45:28;;;;;;;122.63;111.45;;;10.60;75.50;;;;;;4992233;28;20054;-74
2022/05/01 01:47:55;;;;;;;121.93;110.72;;;10.60;75.70;;;;;;4992168;28;20051;-74
2022/05/01 01:50:22;;;;;;;120.43;109.53;;;10.60;75.60;;;;;;4992314;28;20051;-74
2022/05/01 01:52:49;;;;;;;120.85;110.00;;;10.60;75.70;;;;;;4992273;28;20057;-73
2022/05/01 01:55:18;;;;;;;121.95;110.80;;;10.60;75.80;;;;;;4992061;28;20047;-74
2022/05/01 01:57:46;;;;;;;121.97;110.78;;;10.60;76.00;;;;;;4992025;28;20047;-74
2022/05/01 02:00:14;;;;;;;121.72;110.78;;;10.60;76.00;;;;;;4992112;28;20057;-74
2022/05/01 02:02:41;;;;;;;121.30;110.07;;;10.60;76.20;;;;;;4993960;28;20150;-74
2022/05/01 02:05:09;;;;;;;122.10;110.97;;;10.50;76.20;;;;;;4992193;28;20058;-74
2022/05/01 02:07:36;;;;;;;121.57;110.30;;;10.50;76.10;;;;;;4993350;28;20053;-74
2022/05/01 02:10:03;;;;;;;121.88;110.60;;;10.60;76.20;;;;;;4992353;28;20062;-74
2022/05/01 02:12:33;;;;;;;121.38;110.13;;;10.50;76.30;;;;;;4975965;28;20043;-74
2022/05/01 02:15:00;;;;;;;123.38;112.10;;;10.50;76.50;;;;;;4991817;28;20047;-74
2022/05/01 02:17:27;;;;;;;120.28;109.18;;;10.50;76.40;;;;;;4975253;28;20058;-74
2022/05/01 02:19:54;;;;;;;120.43;109.43;;;10.50;76.50;;;;;;4991952;28;20077;-74
2022/05/01 02:22:21;;;;;;;121.65;110.45;;;10.50;76.60;;;;;;4991657;28;20077;-74
2022/05/01 02:24:49;;;;;;;122.20;111.00;;;10.50;76.80;;;;;;4993146;28;20536;-74
2022/05/01 02:27:16;;;;;;;122.50;111.30;;;10.50;77.00;;;;;;4991373;28;20050;-74
2022/05/01 02:29:45;;;;;;;121.15;110.15;;;10.50;77.00;;;;;;4993487;28;20054;-74
2022/05/01 02:32:12;;;;;;;121.05;110.00;;;10.40;77.10;;;;;;4991949;28;20141;-74
2022/05/01 02:34:39;;;;;;;120.32;109.43;;;10.40;77.20;;;;;;4993121;28;20061;-74
2022/05/01 02:37:07;;;;;;;121.68;110.53;;;10.40;77.40;;;;;;4991770;28;20057;-74
2022/05/01 02:39:34;;;;;;;123.45;112.05;;;10.40;77.50;;;;;;4991738;28;20058;-73
2022/05/01 02:42:01;;;;;;;120.85;109.97;;;10.30;77.60;;;;;;4975476;28;20050;-73
2022/05/01 02:44:28;;;;;;;122.68;111.50;;;10.40;77.70;;;;;;4994535;28;20047;-74
2022/05/01 02:46:57;;;;;;;122.03;110.88;;;10.40;77.60;;;;;;4996177;28;20082;-73
2022/05/01 02:49:24;;;;;;;120.95;109.85;;;10.30;77.60;;;;;;4994652;28;20070;-74
2022/05/01 02:51:53;;;;;;;121.78;110.68;;;10.30;77.50;;;;;;4978967;28;21018;-74
2022/05/01 02:54:21;;;;;;;122.05;110.97;;;10.30;77.60;;;;;;4994377;28;20134;-73
2022/05/01 02:56:49;;;;;;;121.35;110.15;;;10.30;77.60;;;;;;4994969;28;20050;-74
2022/05/01 02:59:16;;;;;;;121.68;110.60;;;10.30;77.60;;;;;;4995908;28;20105;-74
2022/05/01 03:01:44;;;;;;;121.60;110.45;;;10.30;77.90;;;;;;4994805;28;20121;-74
2022/05/01 03:04:12;;;;;;;123.22;111.80;;;10.30;78.10;;;;;;4995903;28;20129;-74
2022/05/01 03:06:39;;;;;;;123.95;112.70;;;10.30;78.20;;;;;;4978671;28;20484;-73
2022/05/01 03:09:08;;;;;;;125.78;114.38;;;10.30;78.30;;;;;;4995616;28;20063;-73
2022/05/01 03:11:36;;;;;;;123.45;112.15;;;10.30;78.40;;;;;;4994566;28;20543;-73
2022/05/01 03:14:03;;;;;;;124.32;112.82;;;10.30;78.50;;;;;;4996133;28;20073;-74
2022/05/01 03:16:30;;;;;;;123.20;112.22;;;10.30;78.50;;;;;;4995084;28;20093;-74
2022/05/01 03:24:27;;;;;;;122.90;111.53;;;10.30;78.60;;;;;;4978366;28;20058;-73
2022/05/01 03:26:54;;;;;;;124.40;112.93;;;10.20;78.60;;;;;;4994550;28;20086;-74
2022/05/01 03:29:22;;;;;;;122.97;111.57;;;10.20;78.60;;;;;;4994229;28;20177;-74
2022/05/01 03:31:50;;;;;;;123.05;111.78;;;10.20;78.70;;;;;;4995921;28;20054;-73
2022/05/01 03:34:17;;;;;;;123.03;111.68;;;10.20;78.80;;;;;;4995624;28;20049;-74
2022/05/01 03:36:47;;;;;;;124.28;112.72;;;10.20;78.90;;;;;;4994670;28;20061;-74
2022/05/01 03:39:15;;;;;;;124.75;113.30;;;10.20;79.00;;;;;;4993964;28;20057;-74
2022/05/01 03:41:42;;;;;;;127.20;115.55;;;10.20;79.10;;;;;;4994293;28;20055;-74
2022/05/01 03:44:09;;;;;;;127.43;115.97;;;10.20;79.10;;;;;;4995052;28;20054;-74
2022/05/01 03:46:38;;;;;;;125.85;114.28;;;10.20;79.50;;;;;;4993913;28;20043;-74
2022/05/01 03:49:05;;;;;;;128.45;116.57;;;10.10;79.00;;;;;;4994637;28;20066;-73
2022/05/01 03:51:33;;;;;;;127.55;115.82;;;10.10;79.00;;;;;;4993749;28;20055;-73
2022/05/01 03:54:03;;;;;;;129.00;117.30;;;10.10;79.10;;;;;;4994215;28;20071;-74
2022/05/01 03:56:30;;;;;;;127.38;115.63;;;10.10;79.10;;;;;;4993065;28;20051;-74
2022/05/01 03:58:57;;;;;;;127.78;115.88;;;10.10;78.90;;;;;;4993295;28;20081;-73
2022/05/01 04:01:49;;;;;;;125.70;114.00;;;10.10;78.90;;;;;;4994703;28;20047;-74
2022/05/01 04:04:19;;;;;;;127.05;115.22;;;10.10;78.60;;;;;;4994943;28;20130;-74
2022/05/01 04:06:46;;;;;;;127.95;116.05;;;10.10;79.00;;;;;;4993219;28;20495;-73
2022/05/01 04:09:16;;;;;;;128.95;116.80;;;10.00;79.00;;;;;;4995061;28;20134;-74
2022/05/01 04:11:43;;;;;;;128.07;116.07;;;10.00;79.20;;;;;;4993510;28;20155;-74
2022/05/01 04:14:11;;;;;;;127.63;116.00;;;10.00;79.10;;;;;;4995122;28;20496;-74
2022/05/01 04:16:38;;;;;;;127.95;116.20;;;10.00;79.20;;;;;;4994561;28;20046;-73
2022/05/01 04:19:05;;;;;;;128.65;116.68;;;10.00;79.30;;;;;;4993127;28;20137;-74
2022/05/01 04:21:32;;;;;;;129.25;117.40;;;10.00;79.40;;;;;;4993721;28;20527;-73
2022/05/01 04:23:59;;;;;;;128.93;117.05;;;9.90;79.30;;;;;;4993565;28;20077;-73
2022/05/01 04:26:27;;;;;;;127.30;115.47;;;9.90;79.30;;;;;;4977394;28;20055;-74
2022/05/01 04:31:39;;;;;;;128.35;116.38;;;9.90;79.50;;;;;;4976741;28;20699;-74
2022/05/01 04:34:06;;;;;;;127.70;115.63;;;9.90;79.60;;;;;;4976550;28;20153;-74
2022/05/01 04:36:33;;;;;;;129.50;117.47;;;9.90;79.80;;;;;;4994333;28;20050;-74
2022/05/01 04:39:00;;;;;;;128.70;116.78;;;9.90;80.00;;;;;;4993173;28;20065;-73
2022/05/01 04:41:29;;;;;;;130.00;117.72;;;9.80;80.00;;;;;;4993132;28;20054;-74
2022/05/01 04:43:56;;;;;;;129.73;117.22;;;9.80;80.30;;;;;;4992976;28;20110;-74
2022/05/01 04:46:23;;;;;;;129.73;117.55;;;9.70;80.40;;;;;;4994391;28;20511;-73
2022/05/01 04:48:50;;;;;;;131.73;119.45;;;9.70;80.70;;;;;;4993042;28;20050;-73
2022/05/01 04:51:17;;;;;;;132.00;119.57;;;9.70;80.70;;;;;;4976712;28;20046;-73
2022/05/01 04:53:44;;;;;;;131.23;118.97;;;9.70;80.80;;;;;;4992381;28;20051;-73
2022/05/01 04:58:57;;;;;;;132.55;120.18;;;9.60;81.00;;;;;;4976885;28;20082;-73
2022/05/01 05:01:23;;;;;;;126.88;114.90;;;9.60;81.30;;;;;;4993151;28;20047;-73
2022/05/01 05:03:50;;;;;;;127.47;115.70;;;9.60;81.30;;;;;;4994354;28;20059;-73
2022/05/01 05:06:17;;;;;;;126.97;114.88;;;9.60;81.50;;;;;;4994006;28;20448;-73
2022/05/01 05:11:28;;;;;;;126.40;114.70;;;9.60;81.70;;;;;;4976591;28;20046;-73
2022/05/01 05:13:57;;;;;;;126.70;114.80;;;9.60;81.60;;;;;;4992614;28;20054;-73
2022/05/01 05:16:24;;;;;;;127.40;115.40;;;9.60;81.80;;;;;;4993959;28;20126;-73
2022/05/01 05:18:51;;;;;;;125.72;114.10;;;9.60;81.50;;;;;;4993594;28;20051;-73
2022/05/01 05:21:18;;;;;;;126.65;114.93;;;9.60;81.50;;;;;;4992333;28;20062;-73
2022/05/01 05:23:45;;;;;;;127.00;115.10;;;9.60;81.60;;;;;;4992314;28;20126;-73
2022/05/01 05:26:12;;;;;;;126.53;114.72;;;9.70;81.60;;;;;;4976435;28;20142;-73
2022/05/01 05:28:40;;;;;;;125.60;113.82;;;9.60;81.60;;;;;;4992294;28;20078;-73
2022/05/01 05:31:08;;;;;;;124.07;112.35;;;9.70;81.60;;;;;;4993010;28;20051;-73
2022/05/01 05:33:35;;;;;;;123.72;112.10;;;9.70;81.70;;;;;;4992617;28;20592;-73
2022/05/01 05:36:02;;;;;;;125.00;113.40;;;9.70;81.60;;;;;;4992361;28;20103;-73
2022/05/01 05:38:28;;;;;;;123.50;111.90;;;9.70;81.70;;;;;;4976064;28;20134;-73
2022/05/01 05:40:55;;;;;;;123.72;112.13;;;9.70;81.70;;;;;;4993750;28;20146;-73
2022/05/01 05:43:22;;;;;;;126.90;114.93;;;9.60;81.50;;;;;;4992024;28;20821;-73
2022/05/01 05:45:49;;;;;;;126.80;115.03;;;9.70;81.70;;;;;;4992032;28;20051;-73
2022/05/01 05:48:18;;;;;;;125.22;113.32;;;9.70;81.90;;;;;;4976134;28;20130;-73
2022/05/01 05:50:45;;;;;;;125.68;113.88;;;9.70;82.00;;;;;;4976158;28;20057;-73
2022/05/01 05:53:11;;;;;;;126.45;114.72;;;9.70;81.90;;;;;;4992073;28;20437;-73
2022/05/01 05:55:38;;;;;;;127.85;115.68;;;9.70;81.50;;;;;;4991853;28;20086;-73
2022/05/01 05:58:05;;;;;;;125.18;113.47;;;9.70;81.70;;;;;;4973861;28;20062;-73
2022/05/01 06:00:57;;;;;;;124.60;112.90;;;9.70;81.90;;;;;;4976938;28;20060;-73
2022/05/01 06:03:25;;;;;;;125.45;113.80;;;9.70;81.50;;;;;;4955502;28;20054;-73
2022/05/01 06:05:52;;;;;;;127.65;115.82;;;9.70;81.90;;;;;;4956080;28;20055;-73
2022/05/01 06:08:19;;;;;;;126.55;114.75;;;9.70;82.00;;;;;;4971958;28;20052;-73
2022/05/01 06:10:46;;;;;;;126.80;115.05;;;9.80;82.20;;;;;;4956304;28;20047;-73
2022/05/01 06:13:13;;;;;;;125.93;114.25;;;9.70;82.30;;;;;;4972945;28;20056;-73
2022/05/01 06:15:43;;;;;;;125.43;113.65;;;9.80;82.40;;;;;;4972446;28;20047;-73
2022/05/01 06:18:10;;;;;;;127.45;115.50;;;9.80;82.40;;;;;;4972894;28;20122;-73
2022/05/01 06:20:38;;;;;;;127.68;115.53;;;9.80;82.40;;;;;;4959629;28;20050;-73
2022/05/01 06:23:05;;;;;;;127.18;115.32;;;9.70;82.30;;;;;;4975378;28;20051;-73
2022/05/01 06:25:32;;;;;;;124.93;113.32;;;9.70;82.20;;;;;;4976883;28;20047;-73
2022/05/01 06:28:00;;;;;;;125.07;113.40;;;9.70;82.30;;;;;;4976746;28;20059;-73
2022/05/01 06:30:27;;;;;;;126.40;114.82;;;9.70;83.00;;;;;;4975085;28;20051;-73
2022/05/01 06:32:54;;;;;;;124.70;112.93;;;9.70;82.90;;;;;;4973180;28;20108;-72
2022/05/01 06:35:22;;;;;;;123.70;111.90;;;9.60;83.30;;;;;;4960620;28;20504;-75
2022/05/01 06:37:50;;;;;;;123.00;111.63;;;9.60;83.60;;;;;;4972257;28;20613;-72
2022/05/01 06:40:17;;;;;;;121.90;110.30;;;9.60;83.90;;;;;;4975106;28;20070;-72
2022/05/01 06:42:44;;;;;;;122.72;111.30;;;9.60;84.00;;;;;;4958282;28;20052;-72
2022/05/01 06:45:11;;;;;;;122.90;111.50;;;9.60;84.50;;;;;;4976553;28;20047;-72
2022/05/01 06:47:39;;;;;;;122.80;111.40;;;9.60;84.90;;;;;;4957413;28;20048;-72
2022/05/01 06:50:07;;;;;;;121.22;109.82;;;9.60;85.40;;;;;;4975998;28;20082;-72
2022/05/01 06:52:34;;;;;;;123.05;111.50;;;9.60;85.50;;;;;;4975191;28;20138;-72
2022/05/01 06:55:02;;;;;;;121.80;110.47;;;9.60;85.20;;;;;;4973557;28;20048;-72
2022/05/01 06:57:29;;;;;;;123.05;111.57;;;9.70;85.20;;;;;;4974646;28;20418;-75
2022/05/01 06:59:56;;;;;;;124.05;112.80;;;9.70;85.20;;;;;;4975463;28;20473;-72
2022/05/01 07:02:23;;;;;;;121.15;110.15;;;9.70;85.20;;;;;;4957362;28;20135;-72
2022/05/01 07:04:50;;;;;;;118.90;107.93;;;9.70;85.30;;;;;;4957807;28;20062;-74
2022/05/01 07:07:17;;;;;;;121.60;110.50;;;9.80;85.40;;;;;;4974262;28;20057;-73
2022/05/01 07:09:43;;;;;;;119.68;108.65;;;9.80;85.60;;;;;;4957469;28;20053;-73
2022/05/01 07:12:12;;;;;;;117.68;106.55;;;9.80;85.80;;;;;;4975554;28;20055;-74
2022/05/01 07:14:39;;;;;;;119.40;108.43;;;9.90;85.70;;;;;;4973396;28;20058;-74
2022/05/01 07:17:06;;;;;;;122.15;110.78;;;9.90;85.50;;;;;;4974885;28;20062;-74
2022/05/01 07:19:33;;;;;;;121.13;109.95;;;10.00;85.90;;;;;;4958845;28;20039;-74
2022/05/01 07:22:00;;;;;;;121.45;110.15;;;10.00;85.90;;;;;;4974191;28;20066;-73
2022/05/01 07:24:27;;;;;;;120.40;109.25;;;10.00;86.00;;;;;;4975058;28;20051;-73
2022/05/01 07:26:54;;;;;;;118.75;107.75;;;10.00;85.90;;;;;;4974459;28;20126;-73
2022/05/01 07:29:22;;;;;;;119.03;107.82;;;10.00;85.80;;;;;;4973245;28;20126;-74
2022/05/01 07:31:49;;;;;;;121.07;109.90;;;10.10;85.50;;;;;;4975949;28;20534;-74
2022/05/01 07:34:16;;;;;;;121.93;110.65;;;10.10;85.30;;;;;;4975989;28;20063;-73
2022/05/01 07:36:43;;;;;;;121.93;110.93;;;10.10;85.70;;;;;;4975440;28;20055;-73
2022/05/01 07:39:10;;;;;;;122.65;111.47;;;10.10;85.90;;;;;;4973710;28;20446;-72
2022/05/01 07:41:37;;;;;;;122.45;111.05;;;10.10;85.80;;;;;;4975485;28;20059;-73
2022/05/01 07:44:04;;;;;;;121.63;110.57;;;10.20;85.60;;;;;;4974014;28;20055;-72
2022/05/01 07:46:33;;;;;;;120.03;108.93;;;10.10;85.30;;;;;;4974575;28;20875;-72
2022/05/01 07:49:00;;;;;;;121.88;110.63;;;10.20;85.30;;;;;;4974539;28;20122;-73
2022/05/01 07:51:27;;;;;;;121.00;109.68;;;10.20;85.00;;;;;;4973982;28;20047;-73
2022/05/01 07:53:56;;;;;;;122.18;110.97;;;10.20;84.90;;;;;;4957684;28;20051;-73
2022/05/01 07:56:23;;;;;;;118.90;107.97;;;10.20;84.70;;;;;;4974131;28;20078;-73
2022/05/01 07:58:50;;;;;;;121.30;110.00;;;10.20;84.90;;;;;;4970066;28;20051;-72
2022/05/01 08:01:17;;;;;;;124.75;113.38;;;10.30;85.00;;;;;;4962879;28;20055;-72
2022/05/01 08:06:38;;;;;;;123.88;112.45;;;10.40;85.10;;;;;;4951134;28;20138;-72
2022/05/01 08:09:05;;;;;;;125.15;113.40;;;10.40;85.20;;;;;;4942699;28;20079;-72
2022/05/01 08:11:33;;;;;;;123.45;111.80;;;10.50;84.60;;;;;;4964491;28;20659;-72
2022/05/01 08:14:01;;;;;;;123.63;112.18;;;10.60;84.70;;;;;;4960887;28;20047;-72
2022/05/01 08:16:28;;;;;;;121.22;110.40;;;10.60;84.20;;;;;;4961227;28;20156;-73
2022/05/01 08:21:41;;;;;;;118.47;107.70;;;10.70;83.20;;;;;;4949853;28;20050;-73
2022/05/01 08:24:08;;;;;;;123.88;112.45;;;10.70;82.80;;;;;;4961632;28;20055;-72
2022/05/01 08:26:35;;;;;;;120.03;109.20;;;10.80;82.80;;;;;;4966359;28;20082;-73
2022/05/01 08:29:02;;;;;;;120.18;109.18;;;10.80;82.70;;;;;;4960726;28;20697;-73
2022/05/01 08:31:29;;;;;;;125.07;113.78;;;10.80;82.70;;;;;;4983825;28;20052;-73
2022/05/01 08:33:58;;;;;;;119.95;109.22;;;10.90;82.80;;;;;;4945726;28;20062;-73
2022/05/01 08:36:26;;;;;;;119.70;108.93;;;10.90;81.90;;;;;;4970391;28;20056;-73
2022/05/01 08:38:53;;;;;;;119.35;108.45;;;11.00;81.50;;;;;;4968631;28;20588;-73
2022/05/01 08:41:22;;;;;;;119.63;108.25;;;11.00;80.80;;;;;;4962703;28;20055;-73
2022/05/01 08:43:49;;;;;;;121.10;109.90;;;11.00;80.70;;;;;;4964350;28;20648;-73
2022/05/01 08:46:42;;;;;;;119.88;109.18;;;11.10;80.10;;;;;;4964442;28;20616;-73
2022/05/01 08:49:11;;;;;;;119.18;108.35;;;11.10;79.40;;;;;;4943348;28;20055;-72
2022/05/01 08:51:39;;;;;;;120.40;109.63;;;11.20;79.00;;;;;;4959185;28;20052;-73
2022/05/01 08:54:07;;;;;;;121.28;110.43;;;11.10;78.50;;;;;;4964782;28;20067;-73
2022/05/01 08:56:34;;;;;;;121.60;110.53;;;11.20;78.30;;;;;;4967510;28;20055;-73
2022/05/01 08:59:02;;;;;;;119.45;108.72;;;11.20;78.10;;;;;;4958690;28;20869;-73
2022/05/01 09:01:30;;;;;;;121.65;110.85;;;11.30;77.80;;;;;;4970038;28;20052;-73
2022/05/01 09:03:58;;;;;;;118.63;108.03;;;11.30;77.50;;;;;;4964770;28;20106;-73
2022/05/01 09:06:26;;;;;;;118.72;108.10;;;11.30;77.30;;;;;;4981283;28;20055;-73
2022/05/01 09:09:02;;;;;;;165.90;109.10;;;11.30;77.20;;;;;;4956916;28;20062;-73
2022/05/01 09:14:13;;;;;;;118.40;107.80;;;11.40;76.60;;;;;;4972809;28;20047;-72
2022/05/01 09:16:40;;;;;;;116.15;105.70;;;11.40;76.30;;;;;;4971586;28;20131;-73
2022/05/01 09:19:07;;;;;;;117.30;107.00;;;11.50;76.10;;;;;;4956368;28;20138;-73
2022/05/01 09:21:50;;;;;;;119.90;109.00;;;11.60;76.30;;;;;;4972410;28;20047;-73
2022/05/01 09:24:26;;;;;;;119.07;108.32;;;11.60;75.70;;;;;;4971806;28;20069;-73
2022/05/01 09:26:53;;;;;;;118.25;107.70;;;11.60;75.60;;;;;;4970801;28;20051;-73
2022/05/01 09:29:22;;;;;;;118.22;107.68;;;11.70;76.00;;;;;;4956360;28;20055;-73
2022/05/01 09:31:50;;;;;;;116.25;105.85;;;11.70;76.30;;;;;;4956294;28;20431;-73
2022/05/01 09:34:21;;;;;;;117.03;106.57;;;11.80;76.40;;;;;;4956378;28;20145;-77
2022/05/01 09:36:50;;;;;;;119.40;108.45;;;11.90;76.10;;;;;;4956730;28;20047;-75
2022/05/01 09:39:20;;;;;;;115.25;105.00;;;12.00;75.40;;;;;;4974314;28;20051;-75
2022/05/01 09:41:49;;;;;;;117.78;107.28;;;12.00;74.70;;;;;;4973199;28;20044;-75
2022/05/01 09:44:19;;;;;;;119.70;108.93;;;12.10;74.90;;;;;;4956625;28;20054;-75
2022/05/01 09:46:47;;;;;;;120.40;109.90;;;12.10;74.90;;;;;;4956972;28;20061;-75
2022/05/01 09:49:15;;;;;;;117.07;106.68;;;12.20;74.70;;;;;;4956748;28;20816;-76
2022/05/01 09:51:46;;;;;;;118.47;107.97;;;12.30;74.90;;;;;;4974442;28;20074;-75
2022/05/01 09:54:21;;;;;;;120.13;109.32;;;12.40;74.40;;;;;;4955703;28;20106;-75
2022/05/01 09:56:49;;;;;;;118.90;108.35;;;12.50;73.90;;;;;;4974181;28;20120;-75
2022/05/01 09:59:17;;;;;;;119.80;109.28;;;12.60;74.30;;;;;;4956542;28;20051;-75
2022/05/01 10:01:58;;;;;;;118.40;107.97;;;12.70;73.60;;;;;;4973038;28;20123;-75
2022/05/01 10:04:26;;;;;;;118.38;108.07;;;12.80;73.00;;;;;;4960158;28;20059;-76
2022/05/01 10:06:53;;;;;;;117.18;106.88;;;12.90;72.40;;;;;;4972663;28;20062;-76
2022/05/01 10:09:25;;;;;;;119.95;109.45;;;12.90;72.40;;;;;;4956245;28;20059;-76
2022/05/01 10:11:54;;;;;;;120.05;109.60;;;13.00;72.40;;;;;;4974008;28;20154;-75
2022/05/01 10:14:21;;;;;;;118.25;107.82;;;13.10;72.20;;;;;;4972887;28;20059;-75
2022/05/01 10:16:48;;;;;;;120.30;109.40;;;13.20;72.10;;;;;;4972480;28;20052;-75
2022/05/01 10:19:16;;;;;;;119.82;107.75;;;13.30;72.40;;;;;;4971519;28;20050;-74
2022/05/01 10:21:47;;;;;;;118.50;108.20;;;13.30;71.40;;;;;;4971761;28;20047;-74
2022/05/01 10:24:14;;;;;;;120.68;110.38;;;13.40;70.80;;;;;;4973343;28;20524;-74
2022/05/01 10:26:52;;;;;;;120.50;110.30;;;13.50;70.90;;;;;;4972073;28;20055;-75
2022/05/01 10:32:20;;;;;;;118.15;108.05;;;13.50;69.90;;;;;;4972263;28;20514;-74
2022/05/01 10:33:00;;;;;;;119.80;109.40;;;13.50;69.20;;;;;;4954564;28;20510;-76
2022/05/01 10:35:45;;;;;;;118.97;108.60;;;13.60;68.60;;;;;;4962057;28;21098;-75
2022/05/01 10:38:17;;;;;;;119.63;109.13;;;13.60;68.00;;;;;;4969432;28;20111;-75
2022/05/01 10:40:49;;;;;;;116.38;106.18;;;13.60;68.20;;;;;;4956166;28;20052;-75
2022/05/01 10:43:25;;;;;;;117.82;107.68;;;13.60;68.40;;;;;;4971607;28;20886;-75
2022/05/01 10:45:53;;;;;;;118.78;108.57;;;13.70;67.90;;;;;;4970899;28;20146;-74
2022/05/01 10:48:37;;;;;;;117.90;107.78;;;13.70;68.10;;;;;;4972812;28;20071;-74
2022/05/01 10:51:41;;;;;;;118.60;108.18;;;13.80;67.90;;;;;;4973345;28;20569;-75
2022/05/01 10:54:37;;;;;;;118.28;108.10;;;13.80;66.50;;;;;;4971399;28;20122;-74
2022/05/01 10:57:13;;;;;;;119.32;109.10;;;13.90;66.30;;;;;;4969790;28;20047;-73
2022/05/01 10:59:46;;;;;;;117.70;107.22;;;13.80;65.60;;;;;;4955519;28;20134;-74
2022/05/01 11:02:25;;;;;;;115.60;105.78;;;13.90;65.20;;;;;;4971774;28;20047;-74
2022/05/01 11:04:53;;;;;;;118.97;108.70;;;13.90;65.00;;;;;;4974037;28;20578;-74
2022/05/01 11:07:21;;;;;;;119.82;109.65;;;13.80;64.80;;;;;;4951880;28;20043;-74
2022/05/01 11:09:49;;;;;;;117.85;107.78;;;13.80;64.70;;;;;;4976159;28;20054;-74
2022/05/01 11:12:19;;;;;;;119.50;109.22;;;13.80;64.00;;;;;;4972006;28;20058;-74
2022/05/01 11:14:56;;;;;;;116.80;106.65;;;13.80;63.60;;;;;;4914837;28;25401;-75
2022/05/01 11:17:51;;;;;;;116.88;106.78;;;13.80;62.40;;;;;;4954519;28;20062;-74
2022/05/01 11:20:31;;;;;;;;;;;13.80;62.40;;;;;;4958915;28;20083;-75
2022/05/01 11:23:00;;;;;;;115.15;105.05;;;13.70;63.10;;;;;;4955523;28;19926;-74
2022/05/01 11:25:39;;;;;;;115.88;105.97;;;13.70;62.50;;;;;;4957808;28;20075;-75
2022/05/01 11:28:06;;;;;;;115.88;105.75;;;13.70;62.40;;;;;;4958429;28;20047;-75
2022/05/01 11:30:37;;;;;;;119.10;109.00;;;13.60;62.00;;;;;;4958237;28;20062;-75
2022/05/01 11:33:08;;;;;;;119.05;108.85;;;13.60;61.30;;;;;;4974104;28;20055;-73
2022/05/01 11:35:55;;;;;;;120.78;110.57;;;13.60;61.50;;;;;;4975475;28;20058;-74
2022/05/01 11:38:23;;;;;;;118.90;108.63;;;13.60;62.10;;;;;;4958143;28;20069;-75
2022/05/01 11:40:56;;;;;;;120.47;110.20;;;13.60;61.90;;;;;;4974031;28;20532;-75
2022/05/01 11:43:24;;;;;;;119.07;108.80;;;13.60;61.10;;;;;;4957892;28;20106;-75
2022/05/01 11:45:52;;;;;;;120.63;110.32;;;13.60;61.20;;;;;;4957929;28;20593;-74
2022/05/01 11:48:20;;;;;;;121.63;111.07;;;13.50;61.10;;;;;;4957997;28;20056;-74
2022/05/01 11:50:50;;;;;;;119.05;109.00;;;13.50;61.30;;;;;;4975723;28;20060;-74
2022/05/01 11:53:19;;;;;;;117.47;107.38;;;13.60;60.10;;;;;;4957995;28;20082;-75
2022/05/01 12:04:27;;;;;;;116.93;106.72;;;13.60;58.10;;;;;;4958354;28;20528;-75
2022/05/01 12:07:02;;;;;;;115.75;105.60;;;13.60;58.50;;;;;;4974400;28;20134;-74
2022/05/01 12:09:29;;;;;;;116.07;105.90;;;13.50;58.60;;;;;;4957706;28;20055;-75
2022/05/01 12:11:56;;;;;;;115.95;105.97;;;13.60;58.40;;;;;;4974563;28;20142;-74
2022/05/01 12:14:23;;;;;;;116.70;106.75;;;13.60;58.50;;;;;;4958071;28;20043;-74
2022/05/01 12:16:52;;;;;;;117.30;107.40;;;13.60;59.10;;;;;;4973725;28;20074;-74
2022/05/01 12:19:20;;;;;;;119.32;109.30;;;13.70;58.90;;;;;;4957535;28;20059;-74
2022/05/01 12:21:47;;;;;;;116.43;106.57;;;13.70;59.00;;;;;;4957550;28;20051;-74
2022/05/01 12:24:14;;;;;;;119.90;110.00;;;13.80;59.10;;;;;;4957697;28;20508;-74
2022/05/01 12:26:49;;;;;;;121.15;110.95;;;13.90;59.20;;;;;;4974257;28;20514;-74
2022/05/01 12:29:17;;;;;;;121.07;111.18;;;13.90;59.70;;;;;;4956676;28;20055;-74
2022/05/01 12:32:06;;;;;;;120.78;110.68;;;14.00;60.50;;;;;;4976384;28;20054;-73
2022/05/01 12:34:36;;;;;;;120.95;110.70;;;14.20;60.10;;;;;;4957072;28;20110;-73
2022/05/01 12:37:05;;;;;;;123.78;113.57;;;14.30;58.50;;;;;;4973936;28;20134;-74
2022/05/01 12:39:33;;;;;;;119.78;109.82;;;14.40;57.50;;;;;;4956806;28;20048;-74
2022/05/01 12:45:08;;;;;;;120.45;110.60;;;14.60;58.10;;;;;;4972961;28;20183;-74
2022/05/01 12:47:39;;;;;;;123.00;112.90;;;14.70;58.70;;;;;;4943880;28;20134;-75
2022/05/01 12:50:08;;;;;;;117.97;107.78;;;14.90;58.70;;;;;;4949579;28;20131;-75
2022/05/01 12:52:36;;;;;;;119.22;109.07;;;14.90;58.00;;;;;;4957651;28;20521;-75
2022/05/01 12:55:16;;;;;;;119.95;109.97;;;15.10;57.70;;;;;;4956863;28;20051;-75
2022/05/01 12:57:50;;;;;;;119.30;109.38;;;15.20;58.40;;;;;;4973537;28;20051;-75
2022/05/01 13:00:30;;;;;;;120.50;110.50;;;15.30;58.10;;;;;;4957399;28;20047;-75
2022/05/01 13:03:23;;;;;;;118.80;108.88;;;15.40;58.30;;;;;;4966230;28;20095;-75
2022/05/01 13:05:59;;;;;;;117.45;107.65;;;15.50;58.50;;;;;;4974736;28;20051;-75